sensor_id;sensor_type;location;lat;lon;timestamp;P1;durP1;ratioP1;P2;durP2;ratioP2
30036;SDS011;36325;51.512;-0.382;2022-11-15T00:02:16;12.77;;;2.45;;
30036;SDS011;36325;51.512;-0.382;2022-11-15T00:05:01;10.00;;;2.50;;
30036;SDS011;36325;51.512;-0.382;2022-11-15T00:07:47;13.43;;;2.47;;
30036;SDS011;36325;51.512;-0.382;2022-11-15T00:10:41;12.80;;;2.50;;
30036;SDS011;36325;51.512;-0.382;2022-11-15T00:13:27;17.52;;;3.47;;
30036;SDS011;36325;51.512;-0.382;2022-11-15T00:16:14;11.65;;;2.53;;
30036;SDS011;36325;51.512;-0.382;2022-11-15T00:19:00;12.27;;;1.83;;
30036;SDS011;36325;51.512;-0.382;2022-11-15T00:21:46;10.05;;;2.08;;
30036;SDS011;36325;51.512;-0.382;2022-11-15T00:24:32;6.50;;;2.00;;
30036;SDS011;36325;51.512;-0.382;2022-11-15T00:27:17;9.70;;;1.83;;
30036;SDS011;36325;51.512;-0.382;2022-11-15T00:30:03;13.20;;;1.80;;
30036;SDS011;36325;51.512;-0.382;2022-11-15T00:32:49;8.85;;;2.38;;
30036;SDS011;36325;51.512;-0.382;2022-11-15T00:35:35;12.73;;;2.10;;
30036;SDS011;36325;51.512;-0.382;2022-11-15T00:38:20;8.07;;;1.73;;
30036;SDS011;36325;51.512;-0.382;2022-11-15T00:41:06;10.73;;;2.10;;
30036;SDS011;36325;51.512;-0.382;2022-11-15T00:43:55;10.45;;;1.70;;
30036;SDS011;36325;51.512;-0.382;2022-11-15T00:46:40;7.13;;;1.95;;
30036;SDS011;36325;51.512;-0.382;2022-11-15T00:49:26;7.43;;;2.03;;
30036;SDS011;36325;51.512;-0.382;2022-11-15T00:52:12;11.80;;;2.05;;
30036;SDS011;36325;51.512;-0.382;2022-11-15T00:54:58;15.45;;;2.15;;
30036;SDS011;36325;51.512;-0.382;2022-11-15T00:57:43;8.60;;;1.67;;
30036;SDS011;36325;51.512;-0.382;2022-11-15T01:00:29;14.85;;;1.75;;
30036;SDS011;36325;51.512;-0.382;2022-11-15T01:03:15;14.32;;;2.25;;
30036;SDS011;36325;51.512;-0.382;2022-11-15T01:06:01;12.73;;;1.67;;
30036;SDS011;36325;51.512;-0.382;2022-11-15T01:08:47;9.25;;;1.73;;
30036;SDS011;36325;51.512;-0.382;2022-11-15T01:11:32;12.88;;;2.17;;
30036;SDS011;36325;51.512;-0.382;2022-11-15T01:14:18;20.95;;;2.20;;
30036;SDS011;36325;51.512;-0.382;2022-11-15T01:17:09;16.65;;;2.25;;
30036;SDS011;36325;51.512;-0.382;2022-11-15T01:19:55;8.10;;;1.60;;
30036;SDS011;36325;51.512;-0.382;2022-11-15T01:22:40;7.95;;;1.67;;
30036;SDS011;36325;51.512;-0.382;2022-11-15T01:25:26;6.97;;;2.65;;
30036;SDS011;36325;51.512;-0.382;2022-11-15T01:28:12;11.95;;;2.47;;
30036;SDS011;36325;51.512;-0.382;2022-11-15T01:30:58;15.23;;;1.80;;
30036;SDS011;36325;51.512;-0.382;2022-11-15T01:33:46;6.53;;;1.67;;
30036;SDS011;36325;51.512;-0.382;2022-11-15T01:36:33;11.25;;;1.45;;
30036;SDS011;36325;51.512;-0.382;2022-11-15T01:39:18;11.85;;;1.45;;
30036;SDS011;36325;51.512;-0.382;2022-11-15T01:42:04;3.38;;;1.30;;
30036;SDS011;36325;51.512;-0.382;2022-11-15T01:44:50;7.55;;;1.40;;
30036;SDS011;36325;51.512;-0.382;2022-11-15T01:47:37;8.82;;;1.67;;
30036;SDS011;36325;51.512;-0.382;2022-11-15T01:50:29;9.20;;;1.48;;
30036;SDS011;36325;51.512;-0.382;2022-11-15T01:53:17;8.23;;;1.90;;
30036;SDS011;36325;51.512;-0.382;2022-11-15T01:56:08;14.15;;;2.63;;
30036;SDS011;36325;51.512;-0.382;2022-11-15T01:58:58;12.43;;;1.40;;
30036;SDS011;36325;51.512;-0.382;2022-11-15T02:01:47;5.60;;;1.70;;
30036;SDS011;36325;51.512;-0.382;2022-11-15T02:04:35;15.82;;;2.20;;
30036;SDS011;36325;51.512;-0.382;2022-11-15T02:07:24;6.03;;;1.67;;
30036;SDS011;36325;51.512;-0.382;2022-11-15T02:10:12;11.38;;;1.88;;
30036;SDS011;36325;51.512;-0.382;2022-11-15T02:13:02;11.10;;;1.77;;
30036;SDS011;36325;51.512;-0.382;2022-11-15T02:15:56;7.90;;;1.90;;
30036;SDS011;36325;51.512;-0.382;2022-11-15T02:18:59;8.52;;;1.70;;
30036;SDS011;36325;51.512;-0.382;2022-11-15T02:25:38;19.60;;;1.98;;
30036;SDS011;36325;51.512;-0.382;2022-11-15T02:31:45;21.40;;;1.98;;
30036;SDS011;36325;51.512;-0.382;2022-11-15T02:34:50;12.15;;;1.73;;
30036;SDS011;36325;51.512;-0.382;2022-11-15T02:40:53;9.25;;;1.70;;
30036;SDS011;36325;51.512;-0.382;2022-11-15T02:43:51;20.15;;;2.30;;
30036;SDS011;36325;51.512;-0.382;2022-11-15T02:46:58;8.40;;;1.80;;
30036;SDS011;36325;51.512;-0.382;2022-11-15T02:50:00;16.17;;;1.63;;
30036;SDS011;36325;51.512;-0.382;2022-11-15T02:52:50;11.70;;;1.60;;
30036;SDS011;36325;51.512;-0.382;2022-11-15T02:55:37;7.50;;;1.50;;
30036;SDS011;36325;51.512;-0.382;2022-11-15T02:58:48;17.52;;;1.60;;
30036;SDS011;36325;51.512;-0.382;2022-11-15T03:11:34;11.20;;;2.42;;
30036;SDS011;36325;51.512;-0.382;2022-11-15T03:14:25;16.10;;;2.20;;
30036;SDS011;36325;51.512;-0.382;2022-11-15T03:17:20;11.55;;;2.47;;
30036;SDS011;36325;51.512;-0.382;2022-11-15T03:20:10;17.58;;;2.30;;
30036;SDS011;36325;51.512;-0.382;2022-11-15T03:23:09;11.98;;;2.33;;
30036;SDS011;36325;51.512;-0.382;2022-11-15T03:25:56;17.40;;;2.38;;
30036;SDS011;36325;51.512;-0.382;2022-11-15T03:28:46;7.10;;;1.92;;
30036;SDS011;36325;51.512;-0.382;2022-11-15T03:31:39;7.50;;;1.50;;
30036;SDS011;36325;51.512;-0.382;2022-11-15T03:34:39;12.25;;;2.22;;
30036;SDS011;36325;51.512;-0.382;2022-11-15T03:40:25;10.50;;;1.52;;
30036;SDS011;36325;51.512;-0.382;2022-11-15T03:43:22;15.30;;;2.08;;
30036;SDS011;36325;51.512;-0.382;2022-11-15T03:46:36;17.52;;;1.70;;
30036;SDS011;36325;51.512;-0.382;2022-11-15T03:49:29;12.85;;;2.00;;
30036;SDS011;36325;51.512;-0.382;2022-11-15T03:52:19;13.90;;;1.92;;
30036;SDS011;36325;51.512;-0.382;2022-11-15T03:55:07;12.38;;;1.92;;
30036;SDS011;36325;51.512;-0.382;2022-11-15T03:57:57;15.32;;;1.85;;
30036;SDS011;36325;51.512;-0.382;2022-11-15T04:00:44;29.17;;;2.67;;
30036;SDS011;36325;51.512;-0.382;2022-11-15T04:03:31;12.13;;;1.88;;
30036;SDS011;36325;51.512;-0.382;2022-11-15T04:06:16;13.43;;;2.63;;
30036;SDS011;36325;51.512;-0.382;2022-11-15T04:09:03;15.82;;;2.10;;
30036;SDS011;36325;51.512;-0.382;2022-11-15T04:11:48;18.25;;;2.63;;
30036;SDS011;36325;51.512;-0.382;2022-11-15T04:14:34;13.43;;;2.13;;
30036;SDS011;36325;51.512;-0.382;2022-11-15T04:17:19;12.27;;;1.83;;
30036;SDS011;36325;51.512;-0.382;2022-11-15T04:20:06;14.82;;;2.92;;
30036;SDS011;36325;51.512;-0.382;2022-11-15T04:23:21;16.17;;;2.47;;
30036;SDS011;36325;51.512;-0.382;2022-11-15T04:26:25;14.52;;;2.55;;
30036;SDS011;36325;51.512;-0.382;2022-11-15T04:29:11;14.38;;;2.25;;
30036;SDS011;36325;51.512;-0.382;2022-11-15T04:32:15;16.52;;;2.30;;
30036;SDS011;36325;51.512;-0.382;2022-11-15T04:35:01;17.20;;;2.97;;
30036;SDS011;36325;51.512;-0.382;2022-11-15T04:37:46;8.70;;;1.83;;
30036;SDS011;36325;51.512;-0.382;2022-11-15T04:40:33;12.45;;;2.55;;
30036;SDS011;36325;51.512;-0.382;2022-11-15T04:43:20;7.90;;;1.65;;
30036;SDS011;36325;51.512;-0.382;2022-11-15T04:46:05;13.63;;;2.08;;
30036;SDS011;36325;51.512;-0.382;2022-11-15T04:48:51;10.38;;;1.58;;
30036;SDS011;36325;51.512;-0.382;2022-11-15T04:51:42;18.48;;;1.98;;
30036;SDS011;36325;51.512;-0.382;2022-11-15T04:54:28;13.98;;;2.25;;
30036;SDS011;36325;51.512;-0.382;2022-11-15T04:57:14;12.40;;;2.35;;
30036;SDS011;36325;51.512;-0.382;2022-11-15T05:00:00;12.50;;;2.28;;
30036;SDS011;36325;51.512;-0.382;2022-11-15T05:02:47;11.95;;;1.85;;
30036;SDS011;36325;51.512;-0.382;2022-11-15T05:05:51;12.73;;;1.55;;
30036;SDS011;36325;51.512;-0.382;2022-11-15T05:08:36;10.45;;;1.95;;
30036;SDS011;36325;51.512;-0.382;2022-11-15T05:11:22;6.63;;;1.60;;
30036;SDS011;36325;51.512;-0.382;2022-11-15T05:14:08;18.60;;;2.35;;
30036;SDS011;36325;51.512;-0.382;2022-11-15T05:16:54;10.82;;;1.70;;
30036;SDS011;36325;51.512;-0.382;2022-11-15T05:19:40;17.80;;;2.50;;
30036;SDS011;36325;51.512;-0.382;2022-11-15T05:22:26;13.35;;;2.22;;
30036;SDS011;36325;51.512;-0.382;2022-11-15T05:25:12;23.92;;;1.98;;
30036;SDS011;36325;51.512;-0.382;2022-11-15T05:27:57;10.32;;;1.80;;
30036;SDS011;36325;51.512;-0.382;2022-11-15T05:30:43;12.60;;;2.22;;
30036;SDS011;36325;51.512;-0.382;2022-11-15T05:33:28;15.02;;;1.52;;
30036;SDS011;36325;51.512;-0.382;2022-11-15T05:39:12;16.23;;;2.80;;
30036;SDS011;36325;51.512;-0.382;2022-11-15T05:42:16;18.75;;;2.67;;
30036;SDS011;36325;51.512;-0.382;2022-11-15T05:45:03;8.13;;;1.80;;
30036;SDS011;36325;51.512;-0.382;2022-11-15T05:47:51;14.00;;;1.90;;
30036;SDS011;36325;51.512;-0.382;2022-11-15T05:50:39;19.13;;;1.75;;
30036;SDS011;36325;51.512;-0.382;2022-11-15T05:53:29;12.25;;;1.92;;
30036;SDS011;36325;51.512;-0.382;2022-11-15T05:56:16;10.23;;;2.17;;
30036;SDS011;36325;51.512;-0.382;2022-11-15T05:59:02;5.78;;;1.45;;
30036;SDS011;36325;51.512;-0.382;2022-11-15T06:01:49;7.90;;;1.50;;
30036;SDS011;36325;51.512;-0.382;2022-11-15T06:04:34;12.48;;;2.38;;
30036;SDS011;36325;51.512;-0.382;2022-11-15T06:07:20;14.73;;;2.78;;
30036;SDS011;36325;51.512;-0.382;2022-11-15T06:10:06;17.17;;;2.22;;
30036;SDS011;36325;51.512;-0.382;2022-11-15T06:12:59;17.63;;;2.67;;
30036;SDS011;36325;51.512;-0.382;2022-11-15T06:15:46;17.33;;;2.10;;
30036;SDS011;36325;51.512;-0.382;2022-11-15T06:18:33;16.63;;;2.20;;
30036;SDS011;36325;51.512;-0.382;2022-11-15T06:21:19;16.55;;;2.25;;
30036;SDS011;36325;51.512;-0.382;2022-11-15T06:24:05;23.02;;;2.80;;
30036;SDS011;36325;51.512;-0.382;2022-11-15T06:26:51;13.30;;;2.25;;
30036;SDS011;36325;51.512;-0.382;2022-11-15T06:29:37;16.95;;;3.33;;
30036;SDS011;36325;51.512;-0.382;2022-11-15T06:32:22;17.20;;;3.65;;
30036;SDS011;36325;51.512;-0.382;2022-11-15T06:35:08;19.08;;;3.03;;
30036;SDS011;36325;51.512;-0.382;2022-11-15T06:37:54;14.05;;;2.67;;
30036;SDS011;36325;51.512;-0.382;2022-11-15T06:40:39;16.58;;;2.25;;
30036;SDS011;36325;51.512;-0.382;2022-11-15T06:43:25;14.18;;;2.03;;
30036;SDS011;36325;51.512;-0.382;2022-11-15T06:46:11;11.10;;;1.70;;
30036;SDS011;36325;51.512;-0.382;2022-11-15T06:48:58;13.45;;;1.98;;
30036;SDS011;36325;51.512;-0.382;2022-11-15T06:51:46;10.65;;;1.98;;
30036;SDS011;36325;51.512;-0.382;2022-11-15T06:54:32;19.38;;;2.38;;
30036;SDS011;36325;51.512;-0.382;2022-11-15T06:57:18;13.63;;;2.60;;
30036;SDS011;36325;51.512;-0.382;2022-11-15T07:00:04;16.00;;;1.95;;
30036;SDS011;36325;51.512;-0.382;2022-11-15T07:02:50;13.02;;;2.55;;
30036;SDS011;36325;51.512;-0.382;2022-11-15T07:05:36;12.18;;;1.65;;
30036;SDS011;36325;51.512;-0.382;2022-11-15T07:08:22;17.67;;;2.60;;
30036;SDS011;36325;51.512;-0.382;2022-11-15T07:11:08;7.85;;;1.60;;
30036;SDS011;36325;51.512;-0.382;2022-11-15T07:13:54;11.95;;;2.00;;
30036;SDS011;36325;51.512;-0.382;2022-11-15T07:16:40;14.23;;;1.90;;
30036;SDS011;36325;51.512;-0.382;2022-11-15T07:19:26;5.53;;;1.27;;
30036;SDS011;36325;51.512;-0.382;2022-11-15T07:22:12;9.05;;;1.77;;
30036;SDS011;36325;51.512;-0.382;2022-11-15T07:24:57;11.75;;;2.03;;
30036;SDS011;36325;51.512;-0.382;2022-11-15T07:27:43;9.15;;;2.40;;
30036;SDS011;36325;51.512;-0.382;2022-11-15T07:30:29;13.30;;;2.50;;
30036;SDS011;36325;51.512;-0.382;2022-11-15T07:33:15;8.63;;;2.13;;
30036;SDS011;36325;51.512;-0.382;2022-11-15T07:36:00;11.68;;;2.35;;
30036;SDS011;36325;51.512;-0.382;2022-11-15T07:38:48;8.75;;;2.25;;
30036;SDS011;36325;51.512;-0.382;2022-11-15T07:41:33;8.57;;;1.88;;
30036;SDS011;36325;51.512;-0.382;2022-11-15T07:44:20;10.63;;;3.13;;
30036;SDS011;36325;51.512;-0.382;2022-11-15T07:47:05;7.60;;;1.88;;
30036;SDS011;36325;51.512;-0.382;2022-11-15T07:49:51;5.22;;;2.22;;
30036;SDS011;36325;51.512;-0.382;2022-11-15T07:52:37;4.93;;;1.88;;
30036;SDS011;36325;51.512;-0.382;2022-11-15T07:55:26;7.00;;;1.70;;
30036;SDS011;36325;51.512;-0.382;2022-11-15T07:58:14;4.20;;;1.02;;
30036;SDS011;36325;51.512;-0.382;2022-11-15T08:01:04;7.50;;;1.13;;
30036;SDS011;36325;51.512;-0.382;2022-11-15T08:03:51;5.55;;;1.13;;
30036;SDS011;36325;51.512;-0.382;2022-11-15T08:06:37;7.53;;;1.10;;
30036;SDS011;36325;51.512;-0.382;2022-11-15T08:09:23;2.95;;;1.60;;
30036;SDS011;36325;51.512;-0.382;2022-11-15T08:12:09;3.55;;;0.85;;
30036;SDS011;36325;51.512;-0.382;2022-11-15T08:14:55;2.80;;;0.90;;
30036;SDS011;36325;51.512;-0.382;2022-11-15T08:17:41;6.57;;;1.00;;
30036;SDS011;36325;51.512;-0.382;2022-11-15T08:20:27;1.05;;;0.50;;
30036;SDS011;36325;51.512;-0.382;2022-11-15T08:23:15;6.25;;;1.13;;
30036;SDS011;36325;51.512;-0.382;2022-11-15T08:26:02;3.50;;;0.85;;
30036;SDS011;36325;51.512;-0.382;2022-11-15T08:28:49;1.77;;;0.80;;
30036;SDS011;36325;51.512;-0.382;2022-11-15T08:31:35;3.38;;;0.95;;
30036;SDS011;36325;51.512;-0.382;2022-11-15T08:34:22;2.83;;;0.70;;
30036;SDS011;36325;51.512;-0.382;2022-11-15T08:37:07;1.67;;;0.80;;
30036;SDS011;36325;51.512;-0.382;2022-11-15T08:39:54;6.70;;;1.27;;
30036;SDS011;36325;51.512;-0.382;2022-11-15T08:42:40;5.57;;;1.33;;
30036;SDS011;36325;51.512;-0.382;2022-11-15T08:45:25;4.78;;;1.10;;
30036;SDS011;36325;51.512;-0.382;2022-11-15T08:48:11;2.40;;;1.05;;
30036;SDS011;36325;51.512;-0.382;2022-11-15T08:50:56;3.95;;;1.10;;
30036;SDS011;36325;51.512;-0.382;2022-11-15T08:53:43;6.85;;;1.27;;
30036;SDS011;36325;51.512;-0.382;2022-11-15T08:56:29;4.82;;;1.23;;
30036;SDS011;36325;51.512;-0.382;2022-11-15T08:59:14;6.43;;;1.25;;
30036;SDS011;36325;51.512;-0.382;2022-11-15T09:02:00;5.22;;;1.23;;
30036;SDS011;36325;51.512;-0.382;2022-11-15T09:04:49;5.88;;;2.30;;
30036;SDS011;36325;51.512;-0.382;2022-11-15T09:07:34;9.80;;;2.58;;
30036;SDS011;36325;51.512;-0.382;2022-11-15T09:10:21;10.05;;;2.22;;
30036;SDS011;36325;51.512;-0.382;2022-11-15T09:13:07;4.55;;;1.92;;
30036;SDS011;36325;51.512;-0.382;2022-11-15T09:15:53;5.95;;;1.83;;
30036;SDS011;36325;51.512;-0.382;2022-11-15T09:18:43;3.25;;;1.25;;
30036;SDS011;36325;51.512;-0.382;2022-11-15T09:21:29;5.18;;;1.33;;
30036;SDS011;36325;51.512;-0.382;2022-11-15T09:24:16;2.10;;;1.23;;
30036;SDS011;36325;51.512;-0.382;2022-11-15T09:27:02;8.55;;;1.13;;
30036;SDS011;36325;51.512;-0.382;2022-11-15T09:29:48;2.88;;;1.13;;
30036;SDS011;36325;51.512;-0.382;2022-11-15T09:32:34;3.22;;;0.93;;
30036;SDS011;36325;51.512;-0.382;2022-11-15T09:35:23;1.83;;;1.02;;
30036;SDS011;36325;51.512;-0.382;2022-11-15T09:38:08;4.60;;;1.10;;
30036;SDS011;36325;51.512;-0.382;2022-11-15T09:50:26;9.63;;;1.52;;
30036;SDS011;36325;51.512;-0.382;2022-11-15T09:53:04;7.10;;;1.42;;
30036;SDS011;36325;51.512;-0.382;2022-11-15T09:55:42;4.78;;;1.25;;
30036;SDS011;36325;51.512;-0.382;2022-11-15T09:58:22;6.32;;;1.00;;
30036;SDS011;36325;51.512;-0.382;2022-11-15T10:00:56;5.13;;;1.02;;
30036;SDS011;36325;51.512;-0.382;2022-11-15T10:03:27;8.32;;;1.85;;
30036;SDS011;36325;51.512;-0.382;2022-11-15T10:05:59;4.70;;;0.82;;
30036;SDS011;36325;51.512;-0.382;2022-11-15T10:11:28;6.47;;;1.40;;
30036;SDS011;36325;51.512;-0.382;2022-11-15T10:14:21;3.55;;;0.98;;
30036;SDS011;36325;51.512;-0.382;2022-11-15T10:27:44;6.88;;;0.95;;
30036;SDS011;36325;51.512;-0.382;2022-11-15T10:30:21;2.60;;;1.20;;
30036;SDS011;36325;51.512;-0.382;2022-11-15T10:32:50;6.13;;;0.95;;
30036;SDS011;36325;51.512;-0.382;2022-11-15T10:35:26;3.58;;;0.75;;
30036;SDS011;36325;51.512;-0.382;2022-11-15T10:38:05;3.33;;;0.82;;
30036;SDS011;36325;51.512;-0.382;2022-11-15T10:40:34;9.57;;;1.63;;
30036;SDS011;36325;51.512;-0.382;2022-11-15T10:45:36;1.90;;;0.95;;
30036;SDS011;36325;51.512;-0.382;2022-11-15T10:50:42;3.33;;;1.02;;
30036;SDS011;36325;51.512;-0.382;2022-11-15T10:53:12;4.97;;;1.65;;
30036;SDS011;36325;51.512;-0.382;2022-11-15T10:55:50;7.57;;;1.45;;
30036;SDS011;36325;51.512;-0.382;2022-11-15T10:58:28;5.10;;;1.25;;
30036;SDS011;36325;51.512;-0.382;2022-11-15T11:03:43;4.22;;;1.00;;
30036;SDS011;36325;51.512;-0.382;2022-11-15T11:06:15;7.30;;;2.03;;
30036;SDS011;36325;51.512;-0.382;2022-11-15T11:11:25;6.80;;;1.42;;
30036;SDS011;36325;51.512;-0.382;2022-11-15T11:14:20;9.85;;;1.48;;
30036;SDS011;36325;51.512;-0.382;2022-11-15T11:16:57;7.15;;;1.40;;
30036;SDS011;36325;51.512;-0.382;2022-11-15T11:19:37;12.07;;;1.70;;
30036;SDS011;36325;51.512;-0.382;2022-11-15T11:22:24;4.13;;;1.40;;
30036;SDS011;36325;51.512;-0.382;2022-11-15T11:27:57;4.03;;;1.02;;
30036;SDS011;36325;51.512;-0.382;2022-11-15T11:47:24;6.45;;;1.13;;
30036;SDS011;36325;51.512;-0.382;2022-11-15T11:50:19;11.07;;;2.35;;
30036;SDS011;36325;51.512;-0.382;2022-11-15T11:52:58;7.80;;;1.48;;
30036;SDS011;36325;51.512;-0.382;2022-11-15T11:55:42;4.68;;;0.88;;
30036;SDS011;36325;51.512;-0.382;2022-11-15T12:00:52;8.02;;;1.80;;
30036;SDS011;36325;51.512;-0.382;2022-11-15T12:06:06;16.38;;;1.45;;
30036;SDS011;36325;51.512;-0.382;2022-11-15T12:14:03;7.32;;;1.42;;
30036;SDS011;36325;51.512;-0.382;2022-11-15T12:16:38;5.55;;;0.90;;
30036;SDS011;36325;51.512;-0.382;2022-11-15T12:19:08;5.32;;;1.15;;
30036;SDS011;36325;51.512;-0.382;2022-11-15T12:21:41;9.85;;;1.33;;
30036;SDS011;36325;51.512;-0.382;2022-11-15T12:24:39;3.47;;;1.17;;
30036;SDS011;36325;51.512;-0.382;2022-11-15T12:27:15;8.25;;;1.42;;
30036;SDS011;36325;51.512;-0.382;2022-11-15T12:30:00;6.78;;;1.50;;
30036;SDS011;36325;51.512;-0.382;2022-11-15T12:32:48;8.85;;;1.65;;
30036;SDS011;36325;51.512;-0.382;2022-11-15T12:37:57;7.03;;;1.75;;
30036;SDS011;36325;51.512;-0.382;2022-11-15T12:40:29;12.10;;;1.65;;
30036;SDS011;36325;51.512;-0.382;2022-11-15T12:45:29;11.32;;;1.50;;
30036;SDS011;36325;51.512;-0.382;2022-11-15T12:58:42;6.50;;;1.90;;
30036;SDS011;36325;51.512;-0.382;2022-11-15T13:04:24;6.22;;;1.85;;
30036;SDS011;36325;51.512;-0.382;2022-11-15T13:07:03;9.00;;;1.70;;
30036;SDS011;36325;51.512;-0.382;2022-11-15T13:11:59;8.57;;;1.70;;
30036;SDS011;36325;51.512;-0.382;2022-11-15T13:19:58;9.18;;;1.98;;
30036;SDS011;36325;51.512;-0.382;2022-11-15T13:23:00;6.78;;;1.52;;
30036;SDS011;36325;51.512;-0.382;2022-11-15T13:28:47;6.95;;;1.80;;
30036;SDS011;36325;51.512;-0.382;2022-11-15T13:33:52;10.23;;;2.00;;
30036;SDS011;36325;51.512;-0.382;2022-11-15T13:36:25;4.88;;;1.27;;
30036;SDS011;36325;51.512;-0.382;2022-11-15T13:39:03;4.10;;;1.40;;
30036;SDS011;36325;51.512;-0.382;2022-11-15T13:41:33;8.75;;;1.48;;
30036;SDS011;36325;51.512;-0.382;2022-11-15T13:44:02;3.80;;;1.02;;
30036;SDS011;36325;51.512;-0.382;2022-11-15T13:46:31;7.43;;;1.10;;
30036;SDS011;36325;51.512;-0.382;2022-11-15T13:49:00;2.10;;;1.02;;
30036;SDS011;36325;51.512;-0.382;2022-11-15T13:54:19;8.98;;;1.45;;
30036;SDS011;36325;51.512;-0.382;2022-11-15T13:57:00;6.50;;;1.08;;
30036;SDS011;36325;51.512;-0.382;2022-11-15T13:59:36;2.30;;;0.80;;
30036;SDS011;36325;51.512;-0.382;2022-11-15T14:02:19;4.28;;;0.95;;
30036;SDS011;36325;51.512;-0.382;2022-11-15T14:04:58;3.58;;;0.93;;
30036;SDS011;36325;51.512;-0.382;2022-11-15T14:07:31;7.53;;;1.35;;
30036;SDS011;36325;51.512;-0.382;2022-11-15T14:12:54;7.10;;;0.80;;
30036;SDS011;36325;51.512;-0.382;2022-11-15T14:15:29;6.35;;;0.95;;
30036;SDS011;36325;51.512;-0.382;2022-11-15T14:17:59;7.78;;;1.40;;
30036;SDS011;36325;51.512;-0.382;2022-11-15T14:20:34;2.75;;;1.02;;
30036;SDS011;36325;51.512;-0.382;2022-11-15T14:23:18;3.60;;;0.57;;
30036;SDS011;36325;51.512;-0.382;2022-11-15T14:25:55;6.22;;;1.08;;
30036;SDS011;36325;51.512;-0.382;2022-11-15T14:30:52;6.32;;;1.10;;
30036;SDS011;36325;51.512;-0.382;2022-11-15T14:36:02;4.95;;;0.98;;
30036;SDS011;36325;51.512;-0.382;2022-11-15T14:38:37;7.65;;;1.40;;
30036;SDS011;36325;51.512;-0.382;2022-11-15T14:41:04;9.32;;;1.17;;
30036;SDS011;36325;51.512;-0.382;2022-11-15T14:43:32;11.63;;;1.77;;
30036;SDS011;36325;51.512;-0.382;2022-11-15T14:45:59;5.13;;;0.93;;
30036;SDS011;36325;51.512;-0.382;2022-11-15T14:48:27;4.95;;;1.35;;
30036;SDS011;36325;51.512;-0.382;2022-11-15T14:50:55;7.93;;;1.35;;
30036;SDS011;36325;51.512;-0.382;2022-11-15T14:53:23;2.88;;;1.00;;
30036;SDS011;36325;51.512;-0.382;2022-11-15T14:55:50;3.35;;;0.95;;
30036;SDS011;36325;51.512;-0.382;2022-11-15T14:58:19;8.18;;;0.82;;
30036;SDS011;36325;51.512;-0.382;2022-11-15T15:00:46;5.68;;;1.23;;
30036;SDS011;36325;51.512;-0.382;2022-11-15T15:03:13;6.45;;;1.02;;
30036;SDS011;36325;51.512;-0.382;2022-11-15T15:05:42;3.28;;;0.90;;
30036;SDS011;36325;51.512;-0.382;2022-11-15T15:08:10;7.72;;;1.17;;
30036;SDS011;36325;51.512;-0.382;2022-11-15T15:10:39;6.93;;;1.33;;
30036;SDS011;36325;51.512;-0.382;2022-11-15T15:13:16;7.43;;;1.63;;
30036;SDS011;36325;51.512;-0.382;2022-11-15T15:15:48;6.25;;;0.68;;
30036;SDS011;36325;51.512;-0.382;2022-11-15T15:18:17;5.90;;;1.02;;
30036;SDS011;36325;51.512;-0.382;2022-11-15T15:20:45;5.90;;;1.58;;
30036;SDS011;36325;51.512;-0.382;2022-11-15T15:23:33;6.75;;;1.80;;
30036;SDS011;36325;51.512;-0.382;2022-11-15T15:26:02;5.03;;;1.27;;
30036;SDS011;36325;51.512;-0.382;2022-11-15T15:28:29;5.25;;;1.20;;
30036;SDS011;36325;51.512;-0.382;2022-11-15T15:30:59;7.43;;;1.40;;
30036;SDS011;36325;51.512;-0.382;2022-11-15T15:33:27;6.05;;;1.33;;
30036;SDS011;36325;51.512;-0.382;2022-11-15T15:35:54;7.93;;;1.55;;
30036;SDS011;36325;51.512;-0.382;2022-11-15T15:38:21;3.63;;;0.95;;
30036;SDS011;36325;51.512;-0.382;2022-11-15T15:40:49;10.02;;;1.20;;
30036;SDS011;36325;51.512;-0.382;2022-11-15T15:43:17;13.35;;;1.33;;
30036;SDS011;36325;51.512;-0.382;2022-11-15T15:45:44;6.28;;;1.08;;
30036;SDS011;36325;51.512;-0.382;2022-11-15T15:48:12;4.82;;;1.20;;
30036;SDS011;36325;51.512;-0.382;2022-11-15T15:50:40;6.05;;;1.10;;
30036;SDS011;36325;51.512;-0.382;2022-11-15T15:53:12;7.03;;;1.63;;
30036;SDS011;36325;51.512;-0.382;2022-11-15T15:55:40;7.30;;;1.55;;
30036;SDS011;36325;51.512;-0.382;2022-11-15T15:58:07;12.30;;;1.80;;
30036;SDS011;36325;51.512;-0.382;2022-11-15T16:00:35;12.88;;;1.95;;
30036;SDS011;36325;51.512;-0.382;2022-11-15T16:03:03;16.70;;;2.22;;
30036;SDS011;36325;51.512;-0.382;2022-11-15T16:05:30;6.72;;;1.65;;
30036;SDS011;36325;51.512;-0.382;2022-11-15T16:07:57;7.30;;;2.47;;
30036;SDS011;36325;51.512;-0.382;2022-11-15T16:10:28;8.77;;;2.13;;
30036;SDS011;36325;51.512;-0.382;2022-11-15T16:13:01;12.48;;;1.60;;
30036;SDS011;36325;51.512;-0.382;2022-11-15T16:15:29;11.98;;;1.23;;
30036;SDS011;36325;51.512;-0.382;2022-11-15T16:17:58;6.88;;;1.20;;
30036;SDS011;36325;51.512;-0.382;2022-11-15T16:23:09;8.13;;;2.55;;
30036;SDS011;36325;51.512;-0.382;2022-11-15T16:25:47;5.88;;;1.25;;
30036;SDS011;36325;51.512;-0.382;2022-11-15T16:28:23;5.27;;;1.20;;
30036;SDS011;36325;51.512;-0.382;2022-11-15T16:31:02;9.57;;;2.67;;
30036;SDS011;36325;51.512;-0.382;2022-11-15T16:33:31;4.45;;;1.02;;
30036;SDS011;36325;51.512;-0.382;2022-11-15T16:35:59;5.38;;;1.33;;
30036;SDS011;36325;51.512;-0.382;2022-11-15T16:38:27;9.43;;;1.05;;
30036;SDS011;36325;51.512;-0.382;2022-11-15T16:40:54;7.30;;;1.20;;
30036;SDS011;36325;51.512;-0.382;2022-11-15T16:43:21;5.32;;;1.10;;
30036;SDS011;36325;51.512;-0.382;2022-11-15T16:45:50;7.70;;;1.70;;
30036;SDS011;36325;51.512;-0.382;2022-11-15T16:48:23;13.02;;;1.58;;
30036;SDS011;36325;51.512;-0.382;2022-11-15T16:50:55;6.03;;;1.98;;
30036;SDS011;36325;51.512;-0.382;2022-11-15T16:53:24;7.28;;;1.35;;
30036;SDS011;36325;51.512;-0.382;2022-11-15T16:55:52;9.43;;;2.17;;
30036;SDS011;36325;51.512;-0.382;2022-11-15T16:58:20;6.85;;;1.33;;
30036;SDS011;36325;51.512;-0.382;2022-11-15T17:00:51;10.40;;;1.60;;
30036;SDS011;36325;51.512;-0.382;2022-11-15T17:03:22;12.02;;;1.58;;
30036;SDS011;36325;51.512;-0.382;2022-11-15T17:05:50;5.28;;;1.75;;
30036;SDS011;36325;51.512;-0.382;2022-11-15T17:08:18;10.65;;;1.88;;
30036;SDS011;36325;51.512;-0.382;2022-11-15T17:10:47;8.60;;;1.92;;
30036;SDS011;36325;51.512;-0.382;2022-11-15T17:13:14;15.95;;;1.90;;
30036;SDS011;36325;51.512;-0.382;2022-11-15T17:15:42;5.00;;;1.63;;
30036;SDS011;36325;51.512;-0.382;2022-11-15T17:18:10;7.75;;;1.70;;
30036;SDS011;36325;51.512;-0.382;2022-11-15T17:20:39;6.78;;;1.35;;
30036;SDS011;36325;51.512;-0.382;2022-11-15T17:23:09;9.60;;;1.73;;
30036;SDS011;36325;51.512;-0.382;2022-11-15T17:25:40;12.25;;;1.95;;
30036;SDS011;36325;51.512;-0.382;2022-11-15T17:28:07;13.13;;;1.63;;
30036;SDS011;36325;51.512;-0.382;2022-11-15T17:30:34;3.30;;;1.20;;
30036;SDS011;36325;51.512;-0.382;2022-11-15T17:33:01;6.80;;;1.83;;
30036;SDS011;36325;51.512;-0.382;2022-11-15T17:35:28;6.97;;;2.10;;
30036;SDS011;36325;51.512;-0.382;2022-11-15T17:37:56;6.10;;;1.30;;
30036;SDS011;36325;51.512;-0.382;2022-11-15T17:40:24;5.75;;;1.63;;
30036;SDS011;36325;51.512;-0.382;2022-11-15T17:42:50;3.70;;;1.05;;
30036;SDS011;36325;51.512;-0.382;2022-11-15T17:45:18;6.63;;;1.60;;
30036;SDS011;36325;51.512;-0.382;2022-11-15T17:47:45;2.63;;;1.10;;
30036;SDS011;36325;51.512;-0.382;2022-11-15T17:50:13;6.88;;;1.40;;
30036;SDS011;36325;51.512;-0.382;2022-11-15T17:52:40;6.15;;;1.45;;
30036;SDS011;36325;51.512;-0.382;2022-11-15T17:55:07;7.40;;;1.35;;
30036;SDS011;36325;51.512;-0.382;2022-11-15T17:57:35;7.78;;;1.67;;
30036;SDS011;36325;51.512;-0.382;2022-11-15T18:00:02;11.43;;;2.30;;
30036;SDS011;36325;51.512;-0.382;2022-11-15T18:02:30;8.43;;;1.77;;
30036;SDS011;36325;51.512;-0.382;2022-11-15T18:04:57;4.53;;;0.85;;
30036;SDS011;36325;51.512;-0.382;2022-11-15T18:07:24;9.00;;;2.00;;